Gaines Landing, Arkansas
Current Conditions -  °F | °C
As of 8:53 AM on Tuesday 21 Oct 2014 (Local Time) from KGLH Reporting Station
Clear Clear  
Wind Chill: 63°   Ceiling: Unl
Heat Index: 63°   Visibility: 9mi
Dew Point: 58°   Wind: 3mph
Humidity: 84%   Direction: 360°N
Pressure: 30.1"   Gusts: NA
Location:  33.3324°N, 91.3183°W
Report Text: KGLH 211353Z AUTO 36003KT 9SM CLR 17/14 A3010 RMK AO2 SLP199 T01720144
Loading
Personal Weather Stations






























Interactive Weather Map New forecast layout! Learn more

10-Day Weather Forecast

Advertisements
Track Severe Weather on mobile